Salem, OR

5:50 PM PDT on June 25, 2016 (GMT -0700)
McNary | Change Station
CLOSE
Current Station
Airport
Location: Salem,
Elevation: 200 ft
Nearby Weather Stations

Elev 200 ft 44.91 °N, 123.00 °W | Updated 1 hour ago

Clear
Clear
78 °F
Feels Like 78 °F
N
14
Wind Variable Wind from NE

Today
High -- | Low -- °F
--% Chance of Precip.
Yesterday
High -- | Low -- °F
Precip. -- in
5:27 AM 9:02 PM
Waning Gibbous, 69% visible
Pressure 30.13 in
Visibility 10.0 miles
Clouds Clear
Dew Point 47 °F
Humidity 33%
Rainfall 0.00 in
Snow Depth Not available.
UV 8 out of 12
Pollen 8.90 out of 12
Air Quality Not available.
Flu Activity Not available.
METAR KSLE 252256Z 04012KT 10SM CLR 26/08 A3013 RMK AO2 SLP201 T02560083

More Conditions Fewer Conditions

Pressure 30.13 in
Visibility 10.0 miles
Clouds Clear
Dew Point 47 °F
Humidity 33%
Rainfall 0.00 in
Snow Depth Not available.
UV 8 out of 12
Pollen 8.90 out of 12
Air Quality Not available.
Flu Activity Not available.
METAR KSLE 252256Z 04012KT 10SM CLR 26/08 A3013 RMK AO2 SLP201 T02560083

More Conditions Fewer Conditions

10-Day Weather Forecast

Almanac

Astronomy

Jun. 25, 2016 Rise Set
Actual Time 5:27 AM PDT 9:02 PM PDT
Civil Twilight 4:49 AM PDT 9:39 PM PDT
Nautical Twilight 4:00 AM PDT 10:29 PM PDT
Astronomical Twilight 2:54 AM PDT 11:34 PM PDT
Moon No Moon Rise 11:03 AM PDT (6/25)
Length of Visible Light 16h 50m
Length of Day
15h 35m
Tomorrow will be 0m 24s shorter.
Waning Gibbous, 69% of the Moon is Illuminated
Today
Waning Gibbous
Jun 27
Last Quarter
Jul 4
New
Jul 11
First Quarter
Jul 19
Full

Today's Extremes

State Highs State Lows

Community

WunderPhotos

Upload Photos

1,920,711 photos uploaded!

Nearby

Snow Depth

Station Depth Elevation
Seine Creek 0 in 2000 ft
Jump Off Joe 0 in 3500 ft
Santiam Junction 0 in 3750 ft
Holland Meadows 0 in 4900 ft
Irish Taylor 23 in 5500 ft

Earthquake Activity

City Distance Mag. Time & Date
No recent earthquake activity has been reported nearby.
Minimum magnitude displayed is 2.5.

Coastal Water Temperatures

Place Temperature
No Stations Reporting

Nearby Weather Stations